createdAt,value
2019-06-10T00:02:04.187Z,2.47
2019-06-10T00:04:33.292Z,4.57
2019-06-10T00:07:04.160Z,2.73
2019-06-10T00:09:33.879Z,4.23
2019-06-10T00:12:04.750Z,4.10
2019-06-10T00:14:34.312Z,6.07
2019-06-10T00:17:05.097Z,3.07
2019-06-10T00:19:34.776Z,2.87
2019-06-10T00:22:06.579Z,4.40
2019-06-10T00:24:35.315Z,2.50
2019-06-10T00:27:07.220Z,3.27
2019-06-10T00:29:36.737Z,4.97
2019-06-10T00:32:08.162Z,3.37
2019-06-10T00:34:37.311Z,3.17
2019-06-10T00:37:09.001Z,2.77
2019-06-10T00:39:37.723Z,4.27
2019-06-10T00:42:09.589Z,3.00
2019-06-10T00:44:38.192Z,3.37
2019-06-10T00:47:09.291Z,4.63
2019-06-10T00:49:40.801Z,2.77
2019-06-10T00:52:12.213Z,4.20
2019-06-10T00:54:41.792Z,4.43
2019-06-10T00:57:12.395Z,5.23
2019-06-10T00:59:42.220Z,5.17
2019-06-10T01:02:14.064Z,2.50
2019-06-10T01:04:42.657Z,2.43
2019-06-10T01:07:14.697Z,2.23
2019-06-10T01:09:43.111Z,4.20
2019-06-10T01:12:14.753Z,2.20
2019-06-10T01:14:43.511Z,3.23
2019-06-10T01:17:15.233Z,3.10
2019-06-10T01:19:43.912Z,3.67
2019-06-10T01:22:14.211Z,4.47
2019-06-10T01:24:44.342Z,2.10
2019-06-10T01:27:15.108Z,3.23
2019-06-10T01:29:44.546Z,4.87
2019-06-10T01:32:15.080Z,3.50
2019-06-10T01:34:44.645Z,3.37
2019-06-10T01:37:14.768Z,3.10
2019-06-10T01:39:45.062Z,4.37
2019-06-10T01:42:15.908Z,4.30
2019-06-10T01:44:45.494Z,3.13
2019-06-10T01:47:16.131Z,2.80
2019-06-10T01:49:45.942Z,2.83
2019-06-10T01:52:16.603Z,2.90
2019-06-10T01:54:46.357Z,3.73
2019-06-10T01:57:16.931Z,2.60
2019-06-10T01:59:46.671Z,3.80
2019-06-10T02:02:19.061Z,3.70
2019-06-10T02:04:51.644Z,3.77
2019-06-10T02:07:22.770Z,2.87
2019-06-10T02:09:51.772Z,6.10
2019-06-10T02:12:24.164Z,3.70
2019-06-10T02:14:52.281Z,4.13
2019-06-10T02:17:23.863Z,3.93
2019-06-10T02:19:52.720Z,5.47
2019-06-10T02:22:24.275Z,3.17
2019-06-10T02:24:53.163Z,2.50
2019-06-10T02:27:23.238Z,5.10
2019-06-10T02:29:52.648Z,6.20
2019-06-10T02:32:31.289Z,3.90
2019-06-10T02:35:08.095Z,2.70
2019-06-10T02:37:31.754Z,3.93
2019-06-10T02:39:56.161Z,3.17
2019-06-10T02:42:32.488Z,3.20
2019-06-10T02:45:03.729Z,4.57
2019-06-10T02:47:37.585Z,4.00
2019-06-10T02:50:08.807Z,5.27
2019-06-10T02:52:38.575Z,2.83
2019-06-10T02:55:06.776Z,3.27
2019-06-10T02:57:40.085Z,4.30
2019-06-10T03:00:20.913Z,4.50
2019-06-10T03:02:45.002Z,4.37
2019-06-10T03:05:14.475Z,2.43
2019-06-10T03:07:44.828Z,2.07
2019-06-10T03:10:16.269Z,6.37
2019-06-10T03:12:48.026Z,3.03
2019-06-10T03:15:17.912Z,6.90
2019-06-10T03:17:47.335Z,4.17
2019-06-10T03:20:17.836Z,4.20
2019-06-10T03:22:47.268Z,3.03
2019-06-10T03:25:16.733Z,4.47
2019-06-10T03:27:46.181Z,2.97
2019-06-10T03:30:25.391Z,4.20
2019-06-10T03:32:47.727Z,2.85
2019-06-10T03:35:19.244Z,3.67
2019-06-10T03:37:48.825Z,4.27
2019-06-10T03:40:18.524Z,4.37
2019-06-10T03:42:47.988Z,5.93
2019-06-10T03:45:19.042Z,2.70
2019-06-10T03:47:48.590Z,3.30
2019-06-10T03:50:19.214Z,3.90
2019-06-10T03:52:48.682Z,3.37
2019-06-10T03:55:19.309Z,3.60
2019-06-10T03:57:48.787Z,4.53
2019-06-10T04:00:19.495Z,3.63
2019-06-10T04:02:49.037Z,3.27
2019-06-10T04:05:19.439Z,5.17
2019-06-10T04:07:48.831Z,3.57
2019-06-10T04:10:19.502Z,4.37
2019-06-10T04:12:49.036Z,4.77
2019-06-10T04:15:19.659Z,4.60
2019-06-10T04:17:49.244Z,4.40
2019-06-10T04:20:19.788Z,3.73
2019-06-10T04:22:49.210Z,3.90
2019-06-10T04:25:19.807Z,4.40
2019-06-10T04:27:49.470Z,3.70
2019-06-10T04:30:20.079Z,7.90
2019-06-10T04:32:49.518Z,4.97
2019-06-10T04:35:18.888Z,5.90
2019-06-10T04:37:48.240Z,4.73
2019-06-10T04:40:18.710Z,4.20
2019-06-10T04:42:48.456Z,5.23
2019-06-10T04:45:18.681Z,5.83
2019-06-10T04:47:48.174Z,5.77
2019-06-10T04:50:25.043Z,4.80
2019-06-10T04:52:48.709Z,4.77
2019-06-10T04:55:18.798Z,4.00
2019-06-10T04:57:48.194Z,4.30
2019-06-10T05:00:19.177Z,4.17
2019-06-10T05:02:48.655Z,7.07
2019-06-10T05:05:18.989Z,4.63
2019-06-10T05:07:48.831Z,5.87
2019-06-10T05:10:19.120Z,4.27
2019-06-10T05:12:48.574Z,6.57
2019-06-10T05:15:19.416Z,5.33
2019-06-10T05:17:49.093Z,5.03
2019-06-10T05:20:22.309Z,5.10
2019-06-10T05:22:52.833Z,3.53
2019-06-10T05:25:23.810Z,6.53
2019-06-10T05:27:53.761Z,6.67
2019-06-10T05:30:25.990Z,4.33
2019-06-10T05:32:54.288Z,6.07
2019-06-10T05:35:26.593Z,8.27
2019-06-10T05:37:54.717Z,4.87
2019-06-10T05:40:25.125Z,10.30
2019-06-10T05:42:55.185Z,7.05
2019-06-10T05:45:26.373Z,5.93
2019-06-10T05:47:55.680Z,8.70
2019-06-10T05:50:25.591Z,6.50
2019-06-10T05:52:56.126Z,8.53
2019-06-10T05:55:25.600Z,6.60
2019-06-10T05:57:54.967Z,6.22
2019-06-10T06:00:26.009Z,8.70
2019-06-10T06:02:55.486Z,6.28
2019-06-10T06:05:26.062Z,9.68
2019-06-10T06:08:04.827Z,5.15
2019-06-10T06:10:27.234Z,7.92
2019-06-10T06:12:56.687Z,4.73
2019-06-10T06:15:27.388Z,7.17
2019-06-10T06:18:09.259Z,4.87
2019-06-10T06:20:29.269Z,6.07
2019-06-10T06:22:58.818Z,6.05
2019-06-10T06:25:29.874Z,9.73
2019-06-10T06:27:59.253Z,7.28
2019-06-10T06:30:30.144Z,7.45
2019-06-10T06:32:59.643Z,6.47
2019-06-10T06:35:29.041Z,5.87
2019-06-10T06:37:58.406Z,6.92
2019-06-10T06:40:29.221Z,9.60
2019-06-10T06:42:58.561Z,9.50
2019-06-10T06:45:27.920Z,6.28
2019-06-10T06:47:57.314Z,31.80
2019-06-10T06:50:28.345Z,25.72
2019-06-10T06:53:19.749Z,8.70
2019-06-10T06:55:31.272Z,8.43
2019-06-10T06:58:02.988Z,6.35
2019-06-10T07:00:54.380Z,10.43
2019-06-10T07:03:06.688Z,6.72
2019-06-10T07:05:38.950Z,8.70
2019-06-10T07:08:09.612Z,8.15
2019-06-10T07:10:41.446Z,6.70
2019-06-10T07:13:12.869Z,11.22
2019-06-10T07:15:47.124Z,6.55
2019-06-10T07:18:15.442Z,6.03
2019-06-10T07:20:45.806Z,8.25
2019-06-10T07:23:15.596Z,8.70
2019-06-10T07:25:47.558Z,5.50
2019-06-10T07:28:16.053Z,5.60
2019-06-10T07:30:51.774Z,6.87
2019-06-10T07:33:17.530Z,8.20
2019-06-10T07:35:46.913Z,4.53
2019-06-10T07:38:16.290Z,7.40
2019-06-10T07:40:45.963Z,7.08
2019-06-10T07:43:15.541Z,5.72
2019-06-10T07:45:47.696Z,6.03
2019-06-10T07:48:16.071Z,9.30
2019-06-10T07:50:45.920Z,5.70
2019-06-10T07:53:15.283Z,8.88
2019-06-10T07:55:46.588Z,7.35
2019-06-10T07:58:16.146Z,8.20
2019-06-10T08:00:48.216Z,7.60
2019-06-10T08:03:16.582Z,5.87
2019-06-10T08:05:46.740Z,7.95
2019-06-10T08:08:16.210Z,6.20
2019-06-10T08:10:46.406Z,5.62
2019-06-10T08:13:16.666Z,7.08
2019-06-10T08:15:46.329Z,6.30
2019-06-10T08:18:15.672Z,8.58
2019-06-10T08:20:45.522Z,6.75
2019-06-10T08:23:20.139Z,8.23
2019-06-10T08:25:54.610Z,5.97
2019-06-10T08:28:23.033Z,6.72
2019-06-10T08:30:53.201Z,7.08
2019-06-10T08:33:22.979Z,8.40
2019-06-10T08:35:59.918Z,7.75
2019-06-10T08:38:23.510Z,6.35
2019-06-10T08:40:53.011Z,10.48
2019-06-10T08:43:22.756Z,5.37
2019-06-10T08:45:53.018Z,6.92
2019-06-10T08:48:22.983Z,7.10
2019-06-10T08:50:53.513Z,7.15
2019-06-10T08:53:23.046Z,6.67
2019-06-10T08:55:53.492Z,5.58
2019-06-10T08:58:24.363Z,6.85
2019-06-10T09:00:54.022Z,8.85
2019-06-10T09:03:23.579Z,5.35
2019-06-10T09:05:57.675Z,7.40
2019-06-10T09:08:26.096Z,8.68
2019-06-10T09:10:55.752Z,6.30
2019-06-10T09:13:25.158Z,7.62
2019-06-10T09:16:09.975Z,7.55
2019-06-10T09:18:25.676Z,7.20
2019-06-10T09:20:56.228Z,5.20
2019-06-10T09:23:26.817Z,7.05
2019-06-10T09:25:57.683Z,6.67
2019-06-10T09:28:28.209Z,5.53
2019-06-10T09:30:59.225Z,6.37
2019-06-10T09:33:28.784Z,5.97
2019-06-10T09:35:58.174Z,6.58
2019-06-10T09:38:27.549Z,6.70
2019-06-10T09:41:01.889Z,5.62
2019-06-10T09:43:28.497Z,7.10
2019-06-10T09:45:58.321Z,5.53
2019-06-10T09:48:27.862Z,5.35
2019-06-10T09:50:59.125Z,5.97
2019-06-10T09:53:35.761Z,5.30
2019-06-10T09:55:59.444Z,5.50
2019-06-10T09:58:28.876Z,6.05
2019-06-10T10:01:02.983Z,4.87
2019-06-10T10:03:32.939Z,6.28
2019-06-10T10:06:11.515Z,5.65
2019-06-10T10:08:34.673Z,6.28
2019-06-10T10:11:04.115Z,6.80
2019-06-10T10:13:35.423Z,5.62
2019-06-10T10:16:05.595Z,5.20
2019-06-10T10:18:36.104Z,5.92
2019-06-10T10:21:05.584Z,8.28
2019-06-10T10:23:50.060Z,6.70
2019-06-10T10:26:05.976Z,5.47
2019-06-10T10:28:35.339Z,7.80
2019-06-10T10:31:04.865Z,6.45
2019-06-10T10:33:34.252Z,5.97
2019-06-10T10:36:03.694Z,8.18
2019-06-10T10:38:34.407Z,6.08
2019-06-10T10:41:13.438Z,5.83
2019-06-10T10:43:45.311Z,7.22
2019-06-10T10:46:14.371Z,5.42
2019-06-10T10:48:44.984Z,7.75
2019-06-10T10:51:14.465Z,7.35
2019-06-10T10:53:48.393Z,7.45
2019-06-10T10:56:14.889Z,6.00
2019-06-10T10:58:45.897Z,8.68
2019-06-10T11:01:16.435Z,6.10
2019-06-10T11:03:48.155Z,6.50
2019-06-10T11:06:18.467Z,7.00
2019-06-10T11:08:48.301Z,6.55
2019-06-10T11:11:18.457Z,5.53
2019-06-10T11:13:49.380Z,9.25
2019-06-10T11:16:18.740Z,7.78
2019-06-10T11:18:49.343Z,6.78
2019-06-10T11:21:18.861Z,7.75
2019-06-10T11:23:48.216Z,5.60
2019-06-10T11:26:17.600Z,9.05
2019-06-10T11:28:47.436Z,7.53
2019-06-10T11:31:16.897Z,13.65
2019-06-10T11:33:46.922Z,7.03
2019-06-10T11:36:16.307Z,7.50
2019-06-10T11:38:46.249Z,8.25
2019-06-10T11:41:15.587Z,8.18
2019-06-10T11:43:46.258Z,7.20
2019-06-10T11:46:15.764Z,8.50
2019-06-10T11:48:45.135Z,7.70
2019-06-10T11:51:14.580Z,6.35
2019-06-10T11:53:44.219Z,5.10
2019-06-10T11:56:14.117Z,5.22
2019-06-10T11:58:45.043Z,6.45
2019-06-10T12:01:14.403Z,9.93
2019-06-10T12:03:43.752Z,7.15
2019-06-10T12:06:14.635Z,7.92
2019-06-10T12:08:44.159Z,6.05
2019-06-10T12:11:13.747Z,8.40
2019-06-10T12:13:43.189Z,6.83
2019-06-10T12:18:44.206Z,6.87
2019-06-10T12:21:13.669Z,6.58
2019-06-10T12:23:44.121Z,7.55
2019-06-10T12:26:13.541Z,7.92
2019-06-10T12:28:43.433Z,7.83
2019-06-10T12:31:13.736Z,7.92
2019-06-10T12:33:43.278Z,6.45
2019-06-10T12:36:13.067Z,5.45
2019-06-10T12:38:43.426Z,8.13
2019-06-10T12:41:14.235Z,7.55
2019-06-10T12:43:43.715Z,5.60
2019-06-10T12:46:13.083Z,10.43
2019-06-10T12:48:42.855Z,6.72
2019-06-10T12:51:13.609Z,5.55
2019-06-10T12:53:43.568Z,6.65
2019-06-10T12:56:14.901Z,8.18
2019-06-10T12:58:47.002Z,7.78
2019-06-10T13:01:16.566Z,6.25
2019-06-10T13:03:45.996Z,4.70
2019-06-10T13:06:16.243Z,4.17
2019-06-10T13:08:47.562Z,5.42
2019-06-10T13:11:16.933Z,4.30
2019-06-10T13:13:46.390Z,4.67
2019-06-10T13:16:15.750Z,4.35
2019-06-10T13:18:45.128Z,4.60
2019-06-10T13:21:17.555Z,5.00
2019-06-10T13:23:45.640Z,4.70
2019-06-10T13:26:16.541Z,5.35
2019-06-10T13:28:46.060Z,4.72
2019-06-10T13:31:15.442Z,6.12
2019-06-10T13:33:44.811Z,5.92
2019-06-10T13:36:14.179Z,6.75
2019-06-10T13:38:43.523Z,3.22
2019-06-10T13:41:12.900Z,4.42
2019-06-10T13:43:43.521Z,3.42
2019-06-10T13:46:13.180Z,3.33
2019-06-10T13:48:43.190Z,3.27
2019-06-10T13:51:15.584Z,2.50
2019-06-10T13:53:46.277Z,4.33
2019-06-10T13:56:37.792Z,3.70
2019-06-10T13:58:46.524Z,3.22
2019-06-10T14:01:21.449Z,4.35
2019-06-10T14:03:47.028Z,4.05
2019-06-10T14:06:33.386Z,5.80
2019-06-10T14:08:47.506Z,3.45
2019-06-10T14:11:16.853Z,3.35
2019-06-10T14:13:46.224Z,3.95
2019-06-10T14:16:15.603Z,4.17
2019-06-10T14:18:44.953Z,3.27
2019-06-10T14:21:18.441Z,4.05
2019-06-10T14:23:45.391Z,4.67
2019-06-10T14:26:17.148Z,4.35
2019-06-10T14:28:45.903Z,3.50
2019-06-10T14:31:37.405Z,4.33
2019-06-10T14:33:46.338Z,4.90
2019-06-10T14:36:16.910Z,3.35
2019-06-10T14:38:46.487Z,7.00
2019-06-10T14:41:16.910Z,3.52
2019-06-10T14:43:46.293Z,5.95
2019-06-10T14:46:17.567Z,3.98
2019-06-10T14:48:46.725Z,3.33
2019-06-10T14:51:17.149Z,5.15
2019-06-10T14:53:46.720Z,4.35
2019-06-10T14:56:19.386Z,4.50
2019-06-10T14:58:47.303Z,3.25
2019-06-10T15:01:24.093Z,4.95
2019-06-10T15:03:47.728Z,4.37
2019-06-10T15:06:17.106Z,4.62
2019-06-10T15:08:46.526Z,6.17
2019-06-10T15:11:15.938Z,6.40
2019-06-10T15:13:45.298Z,5.47
2019-06-10T15:16:14.678Z,7.67
2019-06-10T15:18:44.036Z,5.70
2019-06-10T15:21:13.457Z,4.30
2019-06-10T15:23:43.117Z,6.03
2019-06-10T15:26:14.807Z,5.33
2019-06-10T15:28:43.510Z,11.93
2019-06-10T15:31:14.795Z,6.65
2019-06-10T15:33:43.946Z,7.35
2019-06-10T15:36:13.318Z,7.20
2019-06-10T15:38:44.063Z,7.58
2019-06-10T15:41:16.935Z,6.25
2019-06-10T15:43:44.597Z,8.80
2019-06-10T15:46:15.881Z,4.90
2019-06-10T15:48:45.189Z,4.60
2019-06-10T15:51:17.452Z,6.97
2019-06-10T15:53:45.572Z,5.33
2019-06-10T15:56:29.764Z,6.28
2019-06-10T15:58:46.957Z,7.95
2019-06-10T16:01:18.810Z,7.85
2019-06-10T16:03:47.424Z,8.80
2019-06-10T16:06:18.065Z,9.83
2019-06-10T16:08:47.488Z,9.13
2019-06-10T16:11:18.910Z,8.23
2019-06-10T16:13:47.967Z,9.70
2019-06-10T16:16:17.344Z,9.60
2019-06-10T16:18:47.244Z,7.42
2019-06-10T16:21:17.456Z,9.45
2019-06-10T16:23:47.774Z,7.05
2019-06-10T16:26:17.955Z,9.33
2019-06-10T16:28:47.529Z,8.15
2019-06-10T16:31:18.258Z,8.38
2019-06-10T16:33:49.394Z,9.80
2019-06-10T16:36:19.017Z,9.68
2019-06-10T16:38:48.851Z,10.90
2019-06-10T16:41:19.470Z,14.90
2019-06-10T16:43:48.907Z,15.60
2019-06-10T16:46:18.316Z,11.80
2019-06-10T16:48:47.687Z,17.37
2019-06-10T16:51:17.414Z,14.50
2019-06-10T16:53:46.889Z,17.77
2019-06-10T16:56:17.642Z,18.30
2019-06-10T16:58:48.204Z,12.53
2019-06-10T17:01:18.366Z,10.78
2019-06-10T17:03:47.946Z,15.65
2019-06-10T17:06:17.510Z,14.53
2019-06-10T17:08:46.881Z,11.45
2019-06-10T17:11:16.278Z,14.18
2019-06-10T17:13:45.675Z,11.40
2019-06-10T17:16:15.064Z,13.48
2019-06-10T17:18:44.446Z,17.35
2019-06-10T17:21:14.003Z,13.55
2019-06-10T17:23:43.773Z,20.90
2019-06-10T17:26:13.282Z,74.22
2019-06-10T17:28:42.993Z,19.87
2019-06-10T17:31:12.517Z,13.65
2019-06-10T17:33:42.759Z,14.58
2019-06-10T17:36:12.714Z,15.48
2019-06-10T17:38:43.144Z,15.70
2019-06-10T17:41:13.243Z,16.25
2019-06-10T17:43:43.097Z,14.18
2019-06-10T17:46:14.496Z,16.12
2019-06-10T17:48:43.982Z,15.55
2019-06-10T17:51:13.362Z,16.27
2019-06-10T17:53:42.858Z,17.45
2019-06-10T17:56:13.326Z,17.70
2019-06-10T17:58:53.288Z,18.42
2019-06-10T18:01:13.977Z,19.85
2019-06-10T18:03:43.369Z,18.82
2019-06-10T18:06:13.449Z,20.72
2019-06-10T18:08:42.999Z,20.88
2019-06-10T18:11:12.912Z,19.40
2019-06-10T18:13:42.824Z,19.25
2019-06-10T18:16:13.119Z,17.82
2019-06-10T18:18:42.805Z,19.02
2019-06-10T18:21:12.679Z,18.75
2019-06-10T18:23:43.418Z,15.20
2019-06-10T18:26:13.086Z,15.63
2019-06-10T18:29:00.911Z,18.20
2019-06-10T18:31:13.536Z,15.03
2019-06-10T18:33:43.028Z,13.88
2019-06-10T18:36:12.416Z,12.43
2019-06-10T18:38:43.390Z,13.35
2019-06-10T18:41:13.011Z,11.05
2019-06-10T18:43:42.365Z,12.43
2019-06-10T18:46:12.776Z,16.10
2019-06-10T18:48:43.160Z,16.05
2019-06-10T18:51:12.799Z,17.75
2019-06-10T18:53:42.724Z,18.65
2019-06-10T18:56:13.285Z,17.50
2019-06-10T18:58:42.787Z,17.25
2019-06-10T19:01:12.583Z,18.32
2019-06-10T19:03:42.956Z,19.00
2019-06-10T19:06:12.813Z,17.63
2019-06-10T19:08:44.365Z,16.85
2019-06-10T19:11:13.362Z,15.47
2019-06-10T19:13:43.625Z,15.27
2019-06-10T19:16:13.312Z,14.65
2019-06-10T19:18:43.305Z,15.05
2019-06-10T19:21:13.881Z,14.27
2019-06-10T19:23:44.000Z,13.83
2019-06-10T19:26:13.743Z,13.53
2019-06-10T19:28:45.262Z,14.75
2019-06-10T19:31:14.291Z,14.07
2019-06-10T19:33:45.133Z,8.45
2019-06-10T19:36:14.877Z,8.47
2019-06-10T19:38:44.467Z,6.53
2019-06-10T19:41:13.886Z,5.67
2019-06-10T19:43:45.394Z,5.78
2019-06-10T19:46:15.873Z,6.63
2019-06-10T19:48:56.928Z,6.43
2019-06-10T19:51:16.521Z,5.80
2019-06-10T19:53:45.974Z,6.13
2019-06-10T19:56:15.527Z,6.77
2019-06-10T19:58:46.446Z,5.60
2019-06-10T20:01:16.060Z,6.03
2019-06-10T20:03:47.054Z,5.73
2019-06-10T20:06:17.036Z,6.53
2019-06-10T20:08:47.051Z,6.17
2019-06-10T20:11:17.085Z,5.63
2019-06-10T20:14:06.549Z,6.60
2019-06-10T20:16:35.979Z,5.73
2019-06-10T20:19:05.681Z,6.37
2019-06-10T20:21:36.016Z,5.37
2019-06-10T20:24:05.804Z,5.73
2019-06-10T20:26:36.548Z,6.37
2019-06-10T20:29:06.186Z,6.17
2019-06-10T20:31:35.850Z,6.73
2019-06-10T20:34:05.302Z,6.30
2019-06-10T20:36:35.653Z,6.53
2019-06-10T20:39:08.025Z,7.37
2019-06-10T20:41:37.457Z,6.40
2019-06-10T20:44:06.854Z,6.27
2019-06-10T20:46:36.206Z,6.87
2019-06-10T20:49:05.576Z,6.57
2019-06-10T20:51:48.653Z,8.80
2019-06-10T20:54:05.988Z,6.97
2019-06-10T20:56:35.359Z,7.13
2019-06-10T20:59:04.884Z,8.20
2019-06-10T21:01:34.254Z,7.20
2019-06-10T21:04:03.926Z,7.63
2019-06-10T21:06:35.405Z,9.63
2019-06-10T21:09:08.180Z,8.63
2019-06-10T21:11:39.862Z,8.03
2019-06-10T21:14:09.285Z,7.70
2019-06-10T21:16:39.899Z,8.13
2019-06-10T21:19:09.265Z,7.20
2019-06-10T21:21:38.622Z,7.03
2019-06-10T21:24:07.994Z,7.97
2019-06-10T21:26:37.376Z,9.63
2019-06-10T21:29:06.777Z,8.70
2019-06-10T21:31:36.144Z,8.63
2019-06-10T21:34:05.499Z,8.43
2019-06-10T21:36:34.864Z,8.57
2019-06-10T21:39:05.922Z,9.97
2019-06-10T21:41:35.271Z,9.67
2019-06-10T21:44:04.692Z,9.87
2019-06-10T21:46:34.173Z,9.20
2019-06-10T21:49:03.554Z,10.23
2019-06-10T21:51:34.704Z,11.60
2019-06-10T21:54:05.130Z,9.73
2019-06-10T21:56:34.520Z,10.20
2019-06-10T21:59:03.895Z,10.97
2019-06-10T22:01:33.460Z,9.80
2019-06-10T22:04:04.572Z,10.27
2019-06-10T22:06:34.118Z,10.53
2019-06-10T22:09:06.397Z,11.53
2019-06-10T22:11:35.754Z,11.83
2019-06-10T22:14:05.382Z,12.07
2019-06-10T22:16:34.753Z,11.50
2019-06-10T22:19:04.213Z,11.33
2019-06-10T22:21:33.524Z,11.63
2019-06-10T22:24:02.908Z,11.90
2019-06-10T22:26:32.402Z,10.87
2019-06-10T22:29:01.743Z,11.13
2019-06-10T22:31:32.616Z,10.67
2019-06-10T22:34:03.375Z,10.73
2019-06-10T22:36:32.929Z,11.33
2019-06-10T22:39:03.261Z,11.60
2019-06-10T22:41:34.491Z,11.70
2019-06-10T22:44:03.937Z,11.90
2019-06-10T22:46:33.323Z,11.07
2019-06-10T22:49:03.136Z,11.43
2019-06-10T22:51:33.079Z,11.10
2019-06-10T22:54:03.460Z,11.97
2019-06-10T22:56:34.112Z,10.03
2019-06-10T22:59:03.684Z,10.23
2019-06-10T23:01:37.986Z,10.57
2019-06-10T23:04:04.306Z,10.87
2019-06-10T23:06:34.075Z,13.80
2019-06-10T23:09:04.555Z,11.30
2019-06-10T23:11:34.199Z,11.30
2019-06-10T23:14:03.610Z,11.80
2019-06-10T23:16:33.060Z,11.83
2019-06-10T23:19:03.030Z,10.63
2019-06-10T23:21:33.491Z,9.70
2019-06-10T23:24:03.288Z,10.07
2019-06-10T23:26:33.344Z,12.77
2019-06-10T23:29:03.712Z,10.50
2019-06-10T23:31:46.212Z,11.63
2019-06-10T23:34:04.256Z,15.07
2019-06-10T23:36:34.627Z,10.17
2019-06-10T23:39:04.789Z,10.17
2019-06-10T23:41:34.132Z,10.27
2019-06-10T23:44:04.851Z,11.13
2019-06-10T23:46:35.167Z,10.83
2019-06-10T23:49:04.787Z,10.80
2019-06-10T23:51:34.259Z,11.60
2019-06-10T23:54:06.087Z,10.70
2019-06-10T23:56:34.792Z,10.20
2019-06-10T23:59:04.816Z,11.50
